createdAt,value
2022-12-06T00:00:32.675Z,3.37
2022-12-06T00:01:33.901Z,3.33
2022-12-06T00:02:34.129Z,3.43
2022-12-06T00:03:34.884Z,3.43
2022-12-06T00:04:34.511Z,3.37
2022-12-06T00:05:35.763Z,3.33
2022-12-06T00:06:35.948Z,3.5
2022-12-06T00:07:36.698Z,3.43
2022-12-06T00:08:37.357Z,3.5
2022-12-06T00:09:37.547Z,3.48
2022-12-06T00:10:38.059Z,3.5
2022-12-06T00:11:38.979Z,3.48
2022-12-06T00:12:39.889Z,3.53
2022-12-06T00:13:40.103Z,3.55
2022-12-06T00:14:40.526Z,3.55
2022-12-06T00:15:41.038Z,3.45
2022-12-06T00:16:41.596Z,3.36
2022-12-06T00:17:48.175Z,3.4
2022-12-06T00:18:42.783Z,3.33
2022-12-06T00:19:43.705Z,3.48
2022-12-06T00:20:44.351Z,3.46
2022-12-06T00:21:44.529Z,3.34
2022-12-06T00:22:45.439Z,3.4
2022-12-06T00:23:45.348Z,3.34
2022-12-06T00:24:45.489Z,3.34
2022-12-06T00:25:46.746Z,3.53
2022-12-06T00:26:47.970Z,3.36
2022-12-06T00:27:48.176Z,3.24
2022-12-06T00:28:49.062Z,3.34
2022-12-06T00:29:49.375Z,3.24
2022-12-06T00:30:50.321Z,3.29
2022-12-06T00:31:51.289Z,3.15
2022-12-06T00:32:50.840Z,3.22
2022-12-06T00:33:51.466Z,3.21
2022-12-06T00:34:51.602Z,3.21
2022-12-06T00:35:52.260Z,3.09
2022-12-06T00:36:52.585Z,3.24
2022-12-06T00:37:52.925Z,3.22
2022-12-06T00:38:53.833Z,3.13
2022-12-06T00:39:54.321Z,3.13
2022-12-06T00:40:55.310Z,3.21
2022-12-06T00:41:55.510Z,3.11
2022-12-06T00:42:56.142Z,3.13
2022-12-06T00:43:57.626Z,3.15
2022-12-06T00:44:58.349Z,3.09
2022-12-06T00:45:58.614Z,3.11
2022-12-06T00:46:59.083Z,3.15
2022-12-06T00:47:59.978Z,3.12
2022-12-06T00:49:00.183Z,3.22
2022-12-06T00:50:01.036Z,3.13
2022-12-06T00:51:00.880Z,3.03
2022-12-06T00:52:02.052Z,3.15
2022-12-06T00:53:02.658Z,3.11
2022-12-06T00:54:03.258Z,3.03
2022-12-06T00:55:03.984Z,3.05
2022-12-06T00:56:04.873Z,3.05
2022-12-06T00:57:05.364Z,2.97
2022-12-06T00:58:05.568Z,3.13
2022-12-06T00:59:06.188Z,3.08
2022-12-06T01:00:07.091Z,3
2022-12-06T01:01:07.539Z,2.93
2022-12-06T01:02:07.677Z,3
2022-12-06T01:03:08.786Z,2.95
2022-12-06T01:04:08.839Z,2.97
2022-12-06T01:05:09.535Z,2.97
2022-12-06T01:06:10.482Z,2.91
2022-12-06T01:07:10.091Z,2.94
2022-12-06T01:08:11.812Z,2.87
2022-12-06T01:09:12.222Z,2.88
2022-12-06T01:10:12.840Z,2.76
2022-12-06T01:11:13.451Z,2.9
2022-12-06T01:12:14.361Z,2.82
2022-12-06T01:13:14.550Z,2.75
2022-12-06T01:14:15.159Z,2.72
2022-12-06T01:15:16.446Z,2.73
2022-12-06T01:16:16.970Z,2.76
2022-12-06T01:17:17.195Z,2.72
2022-12-06T01:18:17.077Z,2.75
2022-12-06T01:19:18.334Z,2.76
2022-12-06T01:20:18.549Z,2.73
2022-12-06T01:21:19.079Z,2.91
2022-12-06T01:22:19.972Z,2.72
2022-12-06T01:23:20.164Z,2.77
2022-12-06T01:24:19.800Z,2.73
2022-12-06T01:25:25.265Z,2.7
2022-12-06T01:26:20.947Z,2.77
2022-12-06T01:27:21.151Z,2.72
2022-12-06T01:28:22.069Z,2.68
2022-12-06T01:29:22.973Z,2.75
2022-12-06T01:30:23.215Z,2.73
2022-12-06T01:31:24.105Z,2.76
2022-12-06T01:32:24.572Z,2.7
2022-12-06T01:33:25.462Z,2.76
2022-12-06T01:34:26.369Z,2.75
2022-12-06T01:35:27.665Z,2.76
2022-12-06T01:36:28.189Z,2.7
2022-12-06T01:37:28.664Z,2.75
2022-12-06T01:38:28.704Z,2.75
2022-12-06T01:39:29.917Z,2.73
2022-12-06T01:40:29.825Z,2.75
2022-12-06T01:41:30.750Z,2.72
2022-12-06T01:42:31.381Z,2.73
2022-12-06T01:43:32.293Z,2.68
2022-12-06T01:44:33.486Z,2.76
2022-12-06T01:45:34.444Z,2.75
2022-12-06T01:46:34.739Z,2.75
2022-12-06T01:47:35.602Z,2.69
2022-12-06T01:48:35.920Z,2.76
2022-12-06T01:49:37.121Z,2.72
2022-12-06T01:50:37.729Z,2.87
2022-12-06T01:51:38.257Z,2.87
2022-12-06T01:52:38.430Z,2.79
2022-12-06T01:53:38.638Z,2.79
2022-12-06T01:54:39.122Z,2.77
2022-12-06T01:55:39.560Z,2.77
2022-12-06T01:56:40.741Z,2.77
2022-12-06T01:57:40.925Z,2.79
2022-12-06T01:58:41.898Z,2.88
2022-12-06T01:59:42.786Z,2.87
2022-12-06T02:00:42.702Z,2.9
2022-12-06T02:01:43.232Z,2.77
2022-12-06T02:02:43.919Z,2.75
2022-12-06T02:03:43.708Z,2.77
2022-12-06T02:04:44.922Z,2.88
2022-12-06T02:05:47.072Z,2.85
2022-12-06T02:06:45.598Z,2.77
2022-12-06T02:07:45.670Z,2.72
2022-12-06T02:08:46.086Z,2.7
2022-12-06T02:09:46.272Z,2.65
2022-12-06T02:10:47.296Z,2.55
2022-12-06T02:11:46.925Z,2.54
2022-12-06T02:12:48.135Z,2.55
2022-12-06T02:13:48.758Z,2.62
2022-12-06T02:14:49.389Z,2.59
2022-12-06T02:15:50.682Z,2.55
2022-12-06T02:16:51.218Z,2.52
2022-12-06T02:17:51.604Z,2.59
2022-12-06T02:18:51.214Z,2.43
2022-12-06T02:19:51.841Z,2.46
2022-12-06T02:20:52.615Z,2.36
2022-12-06T02:21:53.135Z,2.34
2022-12-06T02:22:53.323Z,2.34
2022-12-06T02:23:53.216Z,2.43
2022-12-06T02:24:53.426Z,2.39
2022-12-06T02:25:54.595Z,2.37
2022-12-06T02:26:55.046Z,2.37
2022-12-06T02:27:55.077Z,2.44
2022-12-06T02:28:56.287Z,2.46
2022-12-06T02:29:57.576Z,2.52
2022-12-06T02:30:58.074Z,2.51
2022-12-06T02:31:58.208Z,2.46
2022-12-06T02:33:01.061Z,2.46
2022-12-06T02:33:59.384Z,2.46
2022-12-06T02:35:00.600Z,2.36
2022-12-06T02:36:01.181Z,2.5
2022-12-06T02:37:01.834Z,2.44
2022-12-06T02:38:02.014Z,2.44
2022-12-06T02:39:02.263Z,2.44
2022-12-06T02:40:03.476Z,2.47
2022-12-06T02:41:03.383Z,2.4
2022-12-06T02:42:04.295Z,2.4
2022-12-06T02:43:05.200Z,2.43
2022-12-06T02:44:05.830Z,2.43
2022-12-06T02:45:06.738Z,2.4
2022-12-06T02:46:07.369Z,2.4
2022-12-06T02:47:07.477Z,2.43
2022-12-06T02:48:07.678Z,2.39
2022-12-06T02:49:08.570Z,2.34
2022-12-06T02:50:09.210Z,2.44
2022-12-06T02:51:09.417Z,2.43
2022-12-06T02:52:10.396Z,2.4
2022-12-06T02:53:11.304Z,2.39
2022-12-06T02:54:12.219Z,2.36
2022-12-06T02:55:11.829Z,2.4
2022-12-06T02:56:13.416Z,2.36
2022-12-06T02:57:13.331Z,2.4
2022-12-06T02:58:13.941Z,2.32
2022-12-06T02:59:14.548Z,2.34
2022-12-06T03:00:15.175Z,2.39
2022-12-06T03:01:16.510Z,2.34
2022-12-06T03:02:17.473Z,2.34
2022-12-06T03:03:18.235Z,2.32
2022-12-06T03:04:18.545Z,2.26
2022-12-06T03:05:19.172Z,2.26
2022-12-06T03:06:19.872Z,2.3
2022-12-06T03:07:20.634Z,2.26
2022-12-06T03:08:21.720Z,2.34
2022-12-06T03:09:21.660Z,2.25
2022-12-06T03:10:22.150Z,2.22
2022-12-06T03:11:22.356Z,2.25
2022-12-06T03:12:22.684Z,2.23
2022-12-06T03:13:23.613Z,2.22
2022-12-06T03:14:24.240Z,2.14
2022-12-06T03:15:25.282Z,2.15
2022-12-06T03:16:26.223Z,2.16
2022-12-06T03:17:26.752Z,2.14
2022-12-06T03:18:26.636Z,2.04
2022-12-06T03:19:27.555Z,2.04
2022-12-06T03:20:28.487Z,2.05
2022-12-06T03:21:29.377Z,2.07
2022-12-06T03:22:29.375Z,2.07
2022-12-06T03:23:29.953Z,1.95
2022-12-06T03:24:30.584Z,1.93
2022-12-06T03:25:31.200Z,1.98
2022-12-06T03:26:31.888Z,1.98
2022-12-06T03:27:32.772Z,1.88
2022-12-06T03:28:33.152Z,1.82
2022-12-06T03:29:34.042Z,1.79
2022-12-06T03:30:34.672Z,1.84
2022-12-06T03:31:35.980Z,1.82
2022-12-06T03:32:36.546Z,1.79
2022-12-06T03:33:36.734Z,1.71
2022-12-06T03:34:37.626Z,1.82
2022-12-06T03:35:38.554Z,1.74
2022-12-06T03:36:38.862Z,1.86
2022-12-06T03:37:39.104Z,1.75
2022-12-06T03:38:40.008Z,1.78
2022-12-06T03:39:39.922Z,1.81
2022-12-06T03:40:40.846Z,1.82
2022-12-06T03:41:41.752Z,1.85
2022-12-06T03:42:41.356Z,1.84
2022-12-06T03:43:42.562Z,1.79
2022-12-06T03:44:42.765Z,1.85
2022-12-06T03:45:43.946Z,1.86
2022-12-06T03:46:43.907Z,1.86
2022-12-06T03:47:44.614Z,1.88
2022-12-06T03:48:45.505Z,1.88
2022-12-06T03:49:46.105Z,1.92
2022-12-06T03:50:46.569Z,1.93
2022-12-06T03:51:47.038Z,2
2022-12-06T03:52:47.297Z,1.98
2022-12-06T03:53:47.771Z,1.98
2022-12-06T03:54:47.388Z,2.01
2022-12-06T03:55:48.996Z,1.97
2022-12-06T03:56:50.003Z,1.92
2022-12-06T03:57:50.321Z,1.98
2022-12-06T03:58:51.525Z,1.95
2022-12-06T03:59:52.451Z,1.98
2022-12-06T04:00:52.607Z,1.95
2022-12-06T04:01:53.737Z,1.93
2022-12-06T04:02:53.983Z,1.88
2022-12-06T04:03:55.092Z,1.86
2022-12-06T04:04:55.177Z,1.82
2022-12-06T04:05:56.094Z,1.81
2022-12-06T04:06:56.832Z,1.86
2022-12-06T04:07:57.772Z,1.81
2022-12-06T04:08:58.172Z,1.84
2022-12-06T04:09:59.754Z,1.74
2022-12-06T04:11:00.007Z,1.71
2022-12-06T04:11:59.919Z,1.63
2022-12-06T04:13:00.529Z,1.64
2022-12-06T04:14:01.438Z,1.64
2022-12-06T04:15:01.761Z,1.57
2022-12-06T04:16:03.183Z,1.61
2022-12-06T04:17:03.058Z,1.58
2022-12-06T04:18:03.965Z,1.61
2022-12-06T04:19:04.959Z,1.52
2022-12-06T04:20:06.945Z,1.56
2022-12-06T04:21:06.473Z,1.7
2022-12-06T04:22:06.381Z,1.61
2022-12-06T04:23:07.629Z,1.74
2022-12-06T04:24:07.541Z,1.66
2022-12-06T04:25:08.431Z,1.66
2022-12-06T04:26:09.052Z,1.75
2022-12-06T04:27:10.326Z,1.71
2022-12-06T04:28:10.635Z,1.75
2022-12-06T04:29:10.966Z,1.75
2022-12-06T04:30:11.303Z,1.76
2022-12-06T04:31:21.657Z,1.75
2022-12-06T04:32:12.666Z,1.82
2022-12-06T04:33:13.187Z,1.7
2022-12-06T04:34:13.131Z,1.82
2022-12-06T04:35:14.039Z,1.74
2022-12-06T04:36:14.976Z,1.79
2022-12-06T04:37:15.572Z,1.81
2022-12-06T04:38:16.093Z,1.81
2022-12-06T04:39:21.287Z,1.7
2022-12-06T04:40:17.233Z,1.88
2022-12-06T04:41:17.468Z,1.85
2022-12-06T04:42:18.655Z,1.85
2022-12-06T04:43:18.573Z,1.71
2022-12-06T04:44:18.786Z,1.74
2022-12-06T04:45:19.407Z,1.78
2022-12-06T04:46:20.483Z,1.76
2022-12-06T04:47:20.512Z,1.74
2022-12-06T04:48:20.748Z,1.75
2022-12-06T04:49:21.357Z,1.79
2022-12-06T04:50:21.562Z,1.79
2022-12-06T04:51:22.188Z,1.74
2022-12-06T04:52:22.817Z,1.78
2022-12-06T04:53:23.905Z,1.71
2022-12-06T04:54:24.078Z,1.78
2022-12-06T04:55:24.270Z,1.81
2022-12-06T04:56:24.752Z,1.82
2022-12-06T04:57:24.758Z,1.81
2022-12-06T04:58:25.670Z,1.85
2022-12-06T04:59:26.280Z,1.78
2022-12-06T05:00:27.269Z,1.78
2022-12-06T05:01:27.972Z,1.78
2022-12-06T05:02:28.876Z,1.78
2022-12-06T05:03:29.531Z,1.76
2022-12-06T05:04:30.105Z,1.78
2022-12-06T05:05:30.600Z,1.79
2022-12-06T05:06:30.920Z,1.75
2022-12-06T05:07:31.252Z,1.84
2022-12-06T05:08:32.055Z,1.82
2022-12-06T05:09:32.525Z,1.78
2022-12-06T05:10:32.537Z,1.79
2022-12-06T05:11:33.476Z,1.81
2022-12-06T05:12:33.395Z,1.79
2022-12-06T05:13:34.604Z,1.79
2022-12-06T05:14:35.495Z,1.79
2022-12-06T05:15:36.381Z,1.82
2022-12-06T05:16:37.145Z,1.82
2022-12-06T05:17:37.877Z,1.86
2022-12-06T05:18:37.917Z,1.86
2022-12-06T05:19:39.107Z,1.84
2022-12-06T05:20:38.998Z,1.79
2022-12-06T05:21:39.917Z,1.76
2022-12-06T05:22:40.102Z,1.84
2022-12-06T05:23:40.629Z,1.84
2022-12-06T05:24:40.879Z,1.82
2022-12-06T05:25:41.078Z,1.74
2022-12-06T05:26:40.994Z,1.81
2022-12-06T05:27:42.080Z,1.79
2022-12-06T05:28:41.815Z,1.78
2022-12-06T05:29:42.701Z,1.78
2022-12-06T05:30:43.339Z,1.78
2022-12-06T05:31:44.181Z,1.79
2022-12-06T05:32:44.701Z,1.81
2022-12-06T05:33:45.487Z,1.7
2022-12-06T05:34:45.687Z,1.71
2022-12-06T05:35:46.296Z,1.66
2022-12-06T05:36:47.626Z,1.63
2022-12-06T05:37:47.942Z,1.63
2022-12-06T05:38:52.837Z,1.57
2022-12-06T05:39:48.437Z,1.58
2022-12-06T05:40:49.183Z,1.53
2022-12-06T05:41:50.381Z,1.52
2022-12-06T05:42:50.997Z,1.42
2022-12-06T05:43:51.481Z,1.46
2022-12-06T05:44:52.099Z,1.43
2022-12-06T05:45:53.214Z,1.4
2022-12-06T05:46:54.078Z,1.27
2022-12-06T05:47:54.778Z,1.25
2022-12-06T05:48:55.016Z,1.28
2022-12-06T05:49:54.929Z,1.27
2022-12-06T05:50:55.492Z,1.3
2022-12-06T05:52:04.103Z,1.27
2022-12-06T05:52:56.545Z,1.22
2022-12-06T05:53:57.064Z,1.24
2022-12-06T05:54:56.960Z,1.21
2022-12-06T05:55:57.889Z,1.12
2022-12-06T05:56:57.799Z,1.13
2022-12-06T05:57:58.850Z,1.14
2022-12-06T05:58:59.333Z,1.13
2022-12-06T06:00:00.150Z,1.13
2022-12-06T06:01:00.310Z,1.2
2022-12-06T06:02:00.916Z,1.16
2022-12-06T06:03:01.425Z,1.13
2022-12-06T06:04:02.305Z,1.14
2022-12-06T06:05:02.491Z,1.18
2022-12-06T06:06:02.409Z,1.06
2022-12-06T06:07:03.609Z,1.09
2022-12-06T06:08:03.616Z,1.1
2022-12-06T06:09:03.747Z,1.04
2022-12-06T06:10:05.051Z,1.1
2022-12-06T06:11:05.973Z,1.12
2022-12-06T06:12:12.986Z,1.21
2022-12-06T06:13:06.642Z,1.18
2022-12-06T06:14:07.828Z,1.14
2022-12-06T06:15:08.743Z,1.18
2022-12-06T06:16:09.521Z,1.13
2022-12-06T06:17:10.030Z,1.14
2022-12-06T06:18:11.043Z,1.18
2022-12-06T06:19:11.257Z,1.12
2022-12-06T06:20:12.465Z,1.16
2022-12-06T06:21:13.350Z,1.12
2022-12-06T06:22:13.569Z,1.18
2022-12-06T06:23:14.459Z,1.22
2022-12-06T06:24:14.441Z,1.2
2022-12-06T06:25:14.911Z,1.2
2022-12-06T06:26:15.804Z,1.2
2022-12-06T06:27:15.992Z,1.16
2022-12-06T06:28:15.971Z,1.24
2022-12-06T06:29:17.254Z,1.25
2022-12-06T06:30:18.160Z,1.27
2022-12-06T06:31:19.168Z,1.27
2022-12-06T06:32:19.317Z,1.24
2022-12-06T06:33:19.944Z,1.24
2022-12-06T06:34:20.912Z,1.22
2022-12-06T06:35:21.847Z,1.13
2022-12-06T06:36:22.458Z,1.21
2022-12-06T06:37:23.375Z,1.18
2022-12-06T06:38:24.401Z,1.16
2022-12-06T06:39:24.630Z,1.18
2022-12-06T06:40:24.831Z,1.14
2022-12-06T06:41:25.740Z,1.22
2022-12-06T06:42:26.078Z,1.21
2022-12-06T06:43:27.272Z,1.2
2022-12-06T06:44:27.474Z,1.21
2022-12-06T06:45:34.301Z,1.22
2022-12-06T06:46:28.273Z,1.14
2022-12-06T06:47:28.928Z,1.2
2022-12-06T06:48:29.616Z,1.21
2022-12-06T06:49:30.131Z,1.22
2022-12-06T06:50:30.760Z,1.24
2022-12-06T06:51:31.977Z,1.25
2022-12-06T06:52:32.203Z,1.27
2022-12-06T06:53:32.394Z,1.28
2022-12-06T06:54:32.687Z,1.25
2022-12-06T06:55:33.213Z,1.2
2022-12-06T06:56:33.841Z,1.2
2022-12-06T06:57:35.052Z,1.2
2022-12-06T06:58:35.667Z,1.22
2022-12-06T06:59:36.281Z,1.27
2022-12-06T07:00:37.252Z,1.22
2022-12-06T07:01:38.435Z,1.28
2022-12-06T07:02:38.715Z,1.21
2022-12-06T07:03:39.819Z,1.21
2022-12-06T07:04:41.169Z,1.12
2022-12-06T07:05:41.113Z,1.12
2022-12-06T07:06:41.450Z,1.13
2022-12-06T07:07:42.556Z,1.21
2022-12-06T07:08:42.590Z,1.16
2022-12-06T07:09:43.253Z,1.16
2022-12-06T07:10:43.738Z,1.2
2022-12-06T07:11:44.440Z,1.14
2022-12-06T07:12:45.185Z,1.18
2022-12-06T07:13:52.857Z,1.12
2022-12-06T07:14:47.468Z,1.13
2022-12-06T07:15:47.110Z,1.12
2022-12-06T07:16:48.497Z,1.02
2022-12-06T07:17:48.381Z,1.14
2022-12-06T07:18:48.838Z,1.13
2022-12-06T07:19:49.526Z,1.18
2022-12-06T07:20:50.125Z,1.18
2022-12-06T07:21:51.320Z,1.2
2022-12-06T07:22:51.829Z,1.22
2022-12-06T07:23:52.743Z,1.28
2022-12-06T07:24:58.376Z,1.28
2022-12-06T07:25:53.871Z,1.3
2022-12-06T07:26:54.068Z,1.27
2022-12-06T07:27:54.684Z,1.31
2022-12-06T07:28:55.387Z,1.3
2022-12-06T07:29:56.462Z,1.27
2022-12-06T07:30:56.856Z,1.3
2022-12-06T07:31:57.051Z,1.31
2022-12-06T07:32:57.688Z,1.27
2022-12-06T07:33:58.626Z,1.28
2022-12-06T07:34:58.874Z,1.39
2022-12-06T07:36:29.199Z,1.66
2022-12-06T07:37:00.093Z,1.78
2022-12-06T07:38:00.309Z,1.97
2022-12-06T07:39:00.909Z,2.36
2022-12-06T07:40:01.972Z,2.85
2022-12-06T07:41:10.734Z,3.37
2022-12-06T07:42:02.227Z,3.82
2022-12-06T07:43:02.271Z,4.18
2022-12-06T07:44:03.172Z,4.56
2022-12-06T07:45:07.644Z,4.83
2022-12-06T07:46:03.829Z,5.05
2022-12-06T07:47:04.220Z,5.41
2022-12-06T07:48:04.817Z,5.56
2022-12-06T07:49:05.107Z,5.79
2022-12-06T07:50:05.783Z,5.84
2022-12-06T07:51:06.050Z,5.67
2022-12-06T07:52:06.397Z,5.4
2022-12-06T07:53:07.035Z,5.08
2022-12-06T07:54:07.246Z,4.92
2022-12-06T07:55:08.209Z,4.89
2022-12-06T07:56:08.697Z,4.97
2022-12-06T07:57:08.912Z,5.13
2022-12-06T07:58:08.838Z,5.25
2022-12-06T07:59:08.855Z,5.38
2022-12-06T08:00:10.483Z,5.58
2022-12-06T08:01:10.900Z,5.44
2022-12-06T08:02:11.684Z,5.58
2022-12-06T08:03:11.630Z,5.47
2022-12-06T08:04:12.999Z,5.31
2022-12-06T08:05:12.806Z,5.15
2022-12-06T08:06:13.732Z,5
2022-12-06T08:07:14.347Z,4.92
2022-12-06T08:08:14.856Z,4.83
2022-12-06T08:09:15.550Z,4.7
2022-12-06T08:10:16.487Z,4.64
2022-12-06T08:11:16.443Z,4.56
2022-12-06T08:12:17.652Z,4.58
2022-12-06T08:13:18.273Z,4.53
2022-12-06T08:14:18.778Z,4.53
2022-12-06T08:15:18.741Z,4.52
2022-12-06T08:16:19.807Z,4.46
2022-12-06T08:17:20.054Z,4.34
2022-12-06T08:18:20.245Z,4.3
2022-12-06T08:19:20.620Z,4.32
2022-12-06T08:20:21.407Z,4.36
2022-12-06T08:21:21.686Z,4.34
2022-12-06T08:22:22.620Z,4.38
2022-12-06T08:23:30.732Z,4.24
2022-12-06T08:24:24.579Z,4.25
2022-12-06T08:25:25.553Z,4.3
2022-12-06T08:26:26.453Z,4.2
2022-12-06T08:27:26.683Z,4.25
2022-12-06T08:28:27.060Z,4.16
2022-12-06T08:29:27.504Z,4.14
2022-12-06T08:30:28.402Z,4.21
2022-12-06T08:31:28.895Z,4.18
2022-12-06T08:32:28.995Z,4.14
2022-12-06T08:33:30.483Z,4.43
2022-12-06T08:34:30.680Z,4.82
2022-12-06T08:35:30.985Z,4.87
2022-12-06T08:36:31.913Z,5.02
2022-12-06T08:37:33.116Z,5
2022-12-06T08:38:33.030Z,4.98
2022-12-06T08:39:33.377Z,4.83
2022-12-06T08:40:34.057Z,4.86
2022-12-06T08:41:34.248Z,4.83
2022-12-06T08:42:34.474Z,4.74
2022-12-06T08:43:35.107Z,4.82
2022-12-06T08:44:36.039Z,4.83
2022-12-06T08:45:36.968Z,4.98
2022-12-06T08:46:37.721Z,5.02
2022-12-06T08:47:37.853Z,5.02
2022-12-06T08:48:43.750Z,5.12
2022-12-06T08:49:38.782Z,5.13
2022-12-06T08:50:38.714Z,5.1
2022-12-06T08:51:39.637Z,5.07
2022-12-06T08:52:40.855Z,4.95
2022-12-06T08:53:41.084Z,4.92
2022-12-06T08:54:41.282Z,4.86
2022-12-06T08:55:41.249Z,4.82
2022-12-06T08:56:42.575Z,4.75
2022-12-06T08:57:42.819Z,4.89
2022-12-06T08:58:43.448Z,4.89
2022-12-06T08:59:43.755Z,4.87
2022-12-06T09:00:44.977Z,4.87
2022-12-06T09:01:45.051Z,4.9
2022-12-06T09:02:45.602Z,5.05
2022-12-06T09:03:46.806Z,5.2
2022-12-06T09:04:47.191Z,5.43
2022-12-06T09:05:47.700Z,5.55
2022-12-06T09:06:47.622Z,5.73
2022-12-06T09:07:48.667Z,6.06
2022-12-06T09:08:49.290Z,6.1
2022-12-06T09:09:49.588Z,6.1
2022-12-06T09:10:50.076Z,6.25
2022-12-06T09:11:50.995Z,6.22
2022-12-06T09:12:51.918Z,6.38
2022-12-06T09:13:51.834Z,6.52
2022-12-06T09:14:53.025Z,6.7
2022-12-06T09:15:53.315Z,6.75
2022-12-06T09:16:54.093Z,6.92
2022-12-06T09:17:54.714Z,7.23
2022-12-06T09:18:54.931Z,7.51
2022-12-06T09:20:03.913Z,7.67
2022-12-06T09:20:55.904Z,7.75
2022-12-06T09:21:56.395Z,7.66
2022-12-06T09:22:56.627Z,7.75
2022-12-06T09:23:57.307Z,7.85
2022-12-06T09:24:57.263Z,7.9
2022-12-06T09:25:58.097Z,7.85
2022-12-06T09:26:58.658Z,7.85
2022-12-06T09:27:58.902Z,8.06
2022-12-06T09:28:59.588Z,7.91
2022-12-06T09:30:00.346Z,7.91
2022-12-06T09:31:00.458Z,8.09
2022-12-06T09:32:01.740Z,8.27
2022-12-06T09:33:01.655Z,8.5
2022-12-06T09:34:02.575Z,8.61
2022-12-06T09:35:03.806Z,8.5
2022-12-06T09:36:04.340Z,8.64
2022-12-06T09:37:04.842Z,8.86
2022-12-06T09:38:04.776Z,9.08
2022-12-06T09:39:05.836Z,9.22
2022-12-06T09:40:06.837Z,9.19
2022-12-06T09:41:07.078Z,9.26
2022-12-06T09:42:07.040Z,9.13
2022-12-06T09:43:06.980Z,9.19
2022-12-06T09:44:08.654Z,9.37
2022-12-06T09:45:08.873Z,9.55
2022-12-06T09:46:09.348Z,9.64
2022-12-06T09:47:09.487Z,9.64
2022-12-06T09:48:10.428Z,9.73
2022-12-06T09:49:10.919Z,9.77
2022-12-06T09:50:11.545Z,9.7
2022-12-06T09:51:11.491Z,9.62
2022-12-06T09:52:12.158Z,9.74
2022-12-06T09:53:13.125Z,9.82
2022-12-06T09:54:13.780Z,9.85
2022-12-06T09:55:14.882Z,9.69
2022-12-06T09:56:15.429Z,9.54
2022-12-06T09:57:15.641Z,9.26
2022-12-06T09:58:15.639Z,9.09
2022-12-06T09:59:16.057Z,8.87
2022-12-06T10:00:23.504Z,8.6
2022-12-06T10:01:17.501Z,8.41
2022-12-06T10:02:19.007Z,8.21
2022-12-06T10:03:19.503Z,8.08
2022-12-06T10:04:19.989Z,7.9
2022-12-06T10:05:20.703Z,7.84
2022-12-06T10:06:21.374Z,7.64
2022-12-06T10:07:21.871Z,7.59
2022-12-06T10:08:22.433Z,7.44
2022-12-06T10:09:23.161Z,7.22
2022-12-06T10:10:23.913Z,7.21
2022-12-06T10:11:24.155Z,7.05
2022-12-06T10:12:24.390Z,6.87
2022-12-06T10:13:25.319Z,6.87
2022-12-06T10:14:25.593Z,6.71
2022-12-06T10:15:25.511Z,6.56
2022-12-06T10:16:26.682Z,6.62
2022-12-06T10:17:27.055Z,6.6
2022-12-06T10:18:27.967Z,6.49
2022-12-06T10:19:28.292Z,6.47
2022-12-06T10:20:29.322Z,6.44
2022-12-06T10:21:30.248Z,6.38
2022-12-06T10:22:30.911Z,6.36
2022-12-06T10:23:31.848Z,6.36
2022-12-06T10:24:32.152Z,6.2
2022-12-06T10:25:31.772Z,6.16
2022-12-06T10:26:33.306Z,6.09
2022-12-06T10:27:33.801Z,5.99
2022-12-06T10:28:33.726Z,6.02
2022-12-06T10:29:35.681Z,6.06
2022-12-06T10:30:35.691Z,6.09
2022-12-06T10:31:36.633Z,6.02
2022-12-06T10:32:36.713Z,5.99
2022-12-06T10:33:37.911Z,5.91
2022-12-06T10:34:38.403Z,5.94
2022-12-06T10:35:38.561Z,5.94
2022-12-06T10:36:38.835Z,6.02
2022-12-06T10:37:38.805Z,5.81
2022-12-06T10:38:40.027Z,5.8
2022-12-06T10:39:40.962Z,5.74
2022-12-06T10:40:41.505Z,5.76
2022-12-06T10:41:55.503Z,5.59
2022-12-06T10:42:43.416Z,5.59
2022-12-06T10:43:43.599Z,5.61
2022-12-06T10:44:44.787Z,5.54
2022-12-06T10:45:45.273Z,5.58
2022-12-06T10:46:45.432Z,5.58
2022-12-06T10:47:45.826Z,5.62
2022-12-06T10:48:46.450Z,5.59
2022-12-06T10:49:47.061Z,5.51
2022-12-06T10:50:48.227Z,5.52
2022-12-06T10:51:48.459Z,5.58
2022-12-06T10:52:49.385Z,5.58
2022-12-06T10:53:50.273Z,5.56
2022-12-06T10:54:50.997Z,5.64
2022-12-06T10:55:51.916Z,5.55
2022-12-06T10:56:52.155Z,5.64
2022-12-06T10:57:53.126Z,5.62
2022-12-06T10:58:52.761Z,5.64
2022-12-06T10:59:54.428Z,5.61
2022-12-06T11:00:55.169Z,5.58
2022-12-06T11:01:56.006Z,5.59
2022-12-06T11:02:56.420Z,5.59
2022-12-06T11:03:57.337Z,5.59
2022-12-06T11:04:57.554Z,5.51
2022-12-06T11:05:58.453Z,5.55
2022-12-06T11:07:00.356Z,5.55
2022-12-06T11:07:59.781Z,5.58
2022-12-06T11:09:00.586Z,5.52
2022-12-06T11:10:01.592Z,5.55
2022-12-06T11:11:00.927Z,5.44
2022-12-06T11:12:02.159Z,5.51
2022-12-06T11:13:02.679Z,5.49
2022-12-06T11:14:03.323Z,5.58
2022-12-06T11:15:04.231Z,5.51
2022-12-06T11:16:05.757Z,5.54
2022-12-06T11:17:05.828Z,5.61
2022-12-06T11:18:08.535Z,5.49
2022-12-06T11:19:07.451Z,5.58
2022-12-06T11:20:08.509Z,5.56
2022-12-06T11:21:09.191Z,5.58
2022-12-06T11:22:09.499Z,5.61
2022-12-06T11:23:10.717Z,5.59
2022-12-06T11:24:11.319Z,5.61
2022-12-06T11:25:12.538Z,5.55
2022-12-06T11:26:13.647Z,5.62
2022-12-06T11:27:14.017Z,5.61
2022-12-06T11:28:15.047Z,5.61
2022-12-06T11:29:15.671Z,5.61
2022-12-06T11:30:20.982Z,5.65
2022-12-06T11:31:16.903Z,5.65
2022-12-06T11:32:17.108Z,5.65
2022-12-06T11:33:17.313Z,5.59
2022-12-06T11:34:17.944Z,5.64
2022-12-06T11:35:18.182Z,5.73
2022-12-06T11:36:18.514Z,5.74
2022-12-06T11:37:19.786Z,5.72
2022-12-06T11:38:20.887Z,5.7
2022-12-06T11:39:21.211Z,5.72
2022-12-06T11:40:21.716Z,5.73
2022-12-06T11:41:22.036Z,5.76
2022-12-06T11:42:22.365Z,5.72
2022-12-06T11:43:22.480Z,5.72
2022-12-06T11:44:22.993Z,5.72
2022-12-06T11:45:23.479Z,5.81
2022-12-06T11:46:24.220Z,5.8
2022-12-06T11:47:24.600Z,5.77
2022-12-06T11:48:24.948Z,5.73
2022-12-06T11:49:25.950Z,5.77
2022-12-06T11:50:26.946Z,5.77
2022-12-06T11:51:27.424Z,5.77
2022-12-06T11:52:27.934Z,5.69
2022-12-06T11:53:28.149Z,5.67
2022-12-06T11:54:29.069Z,5.72
2022-12-06T11:55:29.708Z,5.73
2022-12-06T11:56:29.628Z,5.79
2022-12-06T11:57:30.561Z,5.79
2022-12-06T11:58:31.106Z,5.77
2022-12-06T11:59:31.010Z,5.69
2022-12-06T12:00:32.643Z,5.7
2022-12-06T12:01:33.255Z,5.69
2022-12-06T12:02:33.785Z,5.69
2022-12-06T12:03:35.013Z,5.73
2022-12-06T12:04:35.671Z,5.7
2022-12-06T12:05:35.887Z,5.73
2022-12-06T12:06:36.479Z,5.7
2022-12-06T12:07:37.929Z,5.7
2022-12-06T12:08:38.987Z,5.74
2022-12-06T12:09:38.922Z,5.74
2022-12-06T12:10:39.880Z,5.73
2022-12-06T12:11:40.167Z,5.77
2022-12-06T12:12:40.139Z,5.77
2022-12-06T12:13:40.100Z,5.8
2022-12-06T12:14:43.219Z,5.79
2022-12-06T12:15:41.421Z,5.84
2022-12-06T12:16:41.871Z,5.88
2022-12-06T12:17:42.296Z,5.94
2022-12-06T12:18:42.490Z,5.83
2022-12-06T12:19:42.689Z,5.91
2022-12-06T12:20:43.622Z,5.9
2022-12-06T12:21:45.251Z,5.94
2022-12-06T12:22:45.356Z,5.87
2022-12-06T12:23:45.866Z,5.84
2022-12-06T12:25:20.607Z,6.01
2022-12-06T12:25:46.690Z,5.92
2022-12-06T12:26:47.907Z,5.95
2022-12-06T12:27:48.432Z,5.92
2022-12-06T12:28:49.405Z,5.9
2022-12-06T12:29:49.890Z,5.97
2022-12-06T12:30:49.815Z,5.88
2022-12-06T12:31:50.917Z,5.99
2022-12-06T12:32:50.704Z,6.01
2022-12-06T12:33:52.193Z,6.02
2022-12-06T12:34:53.114Z,6.07
2022-12-06T12:35:53.159Z,6.05
2022-12-06T12:36:54.348Z,6.02
2022-12-06T12:37:54.291Z,5.94
2022-12-06T12:38:54.526Z,5.9
2022-12-06T12:39:55.712Z,5.97
2022-12-06T12:40:56.235Z,5.97
2022-12-06T12:41:57.269Z,5.91
2022-12-06T12:42:58.196Z,5.92
2022-12-06T12:44:41.647Z,5.92
2022-12-06T12:44:59.312Z,5.94
2022-12-06T12:46:05.332Z,5.97
2022-12-06T12:47:00.090Z,5.97
2022-12-06T12:48:01.011Z,5.88
2022-12-06T12:49:01.904Z,5.98
2022-12-06T12:50:02.096Z,5.99
2022-12-06T12:51:02.299Z,5.94
2022-12-06T12:52:03.836Z,6.02
2022-12-06T12:53:04.494Z,5.92
2022-12-06T12:54:04.817Z,5.92
2022-12-06T12:55:06.290Z,5.91
2022-12-06T12:56:06.864Z,5.92
2022-12-06T12:57:07.498Z,5.95
2022-12-06T12:58:08.936Z,5.91
2022-12-06T12:59:08.574Z,5.99
2022-12-06T13:00:08.793Z,5.88
2022-12-06T13:01:10.340Z,5.94
2022-12-06T13:02:11.080Z,5.92
2022-12-06T13:03:51.758Z,5.91
2022-12-06T13:04:12.499Z,5.92
2022-12-06T13:05:48.000Z,5.95
2022-12-06T13:06:13.344Z,6.01
2022-12-06T13:07:14.243Z,5.92
2022-12-06T13:08:14.790Z,5.95
2022-12-06T13:09:14.962Z,5.94
2022-12-06T13:10:15.456Z,5.98
2022-12-06T13:11:16.358Z,5.92
2022-12-06T13:12:17.054Z,5.88
2022-12-06T13:13:17.299Z,6.02
2022-12-06T13:14:17.788Z,5.99
2022-12-06T13:15:18.022Z,5.97
2022-12-06T13:16:18.431Z,5.97
2022-12-06T13:17:18.958Z,6.02
2022-12-06T13:18:18.930Z,5.94
2022-12-06T13:19:19.823Z,6.09
2022-12-06T13:20:20.168Z,6.05
2022-12-06T13:21:21.666Z,6.05
2022-12-06T13:22:21.714Z,6.05
2022-12-06T13:23:22.784Z,6.09
2022-12-06T13:24:23.404Z,6.07
2022-12-06T13:25:24.319Z,6.05
2022-12-06T13:26:24.587Z,6.1
2022-12-06T13:27:24.807Z,6.07
2022-12-06T13:28:25.106Z,6.01
2022-12-06T13:29:25.073Z,5.97